Time;durP1;ratioP1;P1;durP2;ratioP2;P2;SDS_P1;SDS_P2;PMS_P1;PMS_P2;Temp;Humidity;BMP_temperature;BMP_pressure;BME280_temperature;BME280_humidity;BME280_pressure;Samples;Min_cycle;Max_cycle;Signal;HPM_P1;HPM_P2
2023/10/08 00:00:46;;;;;;;26.65;4.10;;;;;;;;;;4964033;28;20145;-59
2023/10/08 00:03:13;;;;;;;47.13;4.72;;;;;;;;;;4965200;28;20129;-60
2023/10/08 00:05:41;;;;;;;56.33;5.07;;;;;;;;;;4965976;28;20043;-59
2023/10/08 00:08:09;;;;;;;36.90;4.03;;;;;;;;;;4962187;28;20043;-59
2023/10/08 00:10:42;;;;;;;39.50;4.30;;;;;;;;;;4962721;28;20035;-59
2023/10/08 00:13:13;;;;;;;21.60;4.63;;;;;;;;;;4963376;28;20121;-60
2023/10/08 00:15:55;;;;;;;36.25;4.15;;;;;;;;;;4964060;28;20039;-59
2023/10/08 00:18:22;;;;;;;25.77;3.47;;;;;;;;;;4966046;28;20050;-59
2023/10/08 00:21:15;;;;;;;68.63;6.72;;;;;;;;;;4962707;28;20039;-61
2023/10/08 00:23:48;;;;;;;55.42;5.25;;;;;;;;;;4962841;28;20611;-60
2023/10/08 00:26:18;;;;;;;24.83;3.83;;;;;;;;;;4979153;28;20055;-60
2023/10/08 00:28:51;;;;;;;35.42;4.30;;;;;;;;;;4964293;28;20039;-60
2023/10/08 00:31:18;;;;;;;40.38;5.22;;;;;;;;;;4966475;28;20491;-59
2023/10/08 00:33:45;;;;;;;40.17;4.00;;;;;;;;;;4962858;28;20066;-60
2023/10/08 00:36:18;;;;;;;32.70;3.92;;;;;;;;;;4965110;28;20035;-59
2023/10/08 00:38:46;;;;;;;;;;;;;;;;;;4962115;28;20039;-59
2023/10/08 00:41:16;;;;;;;27.85;3.72;;;;;;;;;;4967156;28;19925;-59
2023/10/08 00:43:44;;;;;;;34.00;3.85;;;;;;;;;;4962112;28;20380;-59
2023/10/08 00:52:26;;;;;;;39.50;4.50;;;;;;;;;;4877824;29;20103;-60
2023/10/08 00:55:06;;;;;;;27.63;4.10;;;;;;;;;;4893189;29;20080;-60
2023/10/08 00:57:42;;;;;;;25.77;4.15;;;;;;;;;;4866959;29;20437;-62
2023/10/08 01:00:17;;;;;;;42.08;4.72;;;;;;;;;;4834388;29;20496;-59
2023/10/08 01:02:56;;;;;;;59.72;6.25;;;;;;;;;;4865808;29;20053;-60
2023/10/08 01:05:41;;;;;;;20.98;3.88;;;;;;;;;;4866073;29;20073;-59
2023/10/08 01:08:12;;;;;;;22.00;3.75;;;;;;;;;;4851800;29;20494;-59
2023/10/08 01:10:43;;;;;;;30.63;5.05;;;;;;;;;;4851509;29;20181;-60
2023/10/08 01:13:20;;;;;;;25.67;4.57;;;;;;;;;;4866116;29;20215;-59
2023/10/08 01:15:50;;;;;;;32.17;4.45;;;;;;;;;;4866173;29;20041;-61
2023/10/08 01:18:24;;;;;;;31.52;6.00;;;;;;;;;;4848585;29;20411;-61
2023/10/08 01:20:52;;;;;;;64.47;6.13;;;;;;;;;;4866645;29;20052;-60
2023/10/08 01:23:21;;;;;;;21.73;3.70;;;;;;;;;;4850046;29;20527;-59
2023/10/08 01:25:52;;;;;;;39.40;4.30;;;;;;;;;;4883117;29;20136;-60
2023/10/08 01:28:26;;;;;;;28.85;3.95;;;;;;;;;;4922683;28;20134;-59
2023/10/08 01:30:54;;;;;;;39.65;4.95;;;;;;;;;;4962749;28;20528;-60
2023/10/08 01:33:22;;;;;;;31.67;4.35;;;;;;;;;;4964228;28;20081;-59
2023/10/08 01:35:49;;;;;;;79.40;6.80;;;;;;;;;;4963369;28;20045;-60
2023/10/08 01:38:21;;;;;;;20.70;3.60;;;;;;;;;;4962406;28;20043;-59
2023/10/08 01:40:50;;;;;;;37.30;4.80;;;;;;;;;;4966367;28;20401;-59
2023/10/08 01:43:17;;;;;;;28.33;3.72;;;;;;;;;;4976528;28;20047;-60
2023/10/08 01:45:48;;;;;;;40.72;5.20;;;;;;;;;;4964315;28;20063;-60
2023/10/08 01:48:20;;;;;;;38.28;5.35;;;;;;;;;;4961697;28;20362;-59
2023/10/08 01:50:47;;;;;;;65.82;6.38;;;;;;;;;;4961158;28;20041;-59
2023/10/08 01:53:16;;;;;;;17.35;3.58;;;;;;;;;;4960314;28;20457;-60
2023/10/08 01:55:48;;;;;;;29.95;4.65;;;;;;;;;;4963890;28;20040;-59
2023/10/08 01:58:16;;;;;;;21.77;3.92;;;;;;;;;;4960934;28;20067;-60
2023/10/08 02:04:02;;;;;;;31.48;4.13;;;;;;;;;;4726107;26;20106;-53
2023/10/08 02:06:30;;;;;;;35.13;4.40;;;;;;;;;;4952069;29;20131;-48
2023/10/08 02:08:58;;;;;;;37.53;4.28;;;;;;;;;;4935343;29;20453;-55
2023/10/08 02:11:27;;;;;;;26.25;4.13;;;;;;;;;;4936359;29;20123;-55
2023/10/08 02:13:54;;;;;;;50.15;5.40;;;;;;;;;;4950892;29;20050;-52
2023/10/08 02:16:22;;;;;;;27.25;4.65;;;;;;;;;;4951005;29;20043;-50
2023/10/08 02:18:51;;;;;;;36.88;4.75;;;;;;;;;;4931489;29;20051;-54
2023/10/08 02:21:18;;;;;;;35.38;4.45;;;;;;;;;;4950933;28;20039;-51
2023/10/08 02:23:44;;;;;;;70.03;6.38;;;;;;;;;;4952327;29;20047;-58
2023/10/08 02:26:14;;;;;;;20.50;3.22;;;;;;;;;;4953355;29;20400;-54
2023/10/08 02:28:41;;;;;;;26.33;3.35;;;;;;;;;;4934888;29;20505;-53
2023/10/08 02:31:08;;;;;;;30.50;3.75;;;;;;;;;;4934853;29;20053;-54
2023/10/08 02:33:35;;;;;;;24.80;3.45;;;;;;;;;;4935176;29;20035;-55
2023/10/08 02:36:04;;;;;;;46.92;4.43;;;;;;;;;;4950768;29;20070;-52
2023/10/08 02:38:37;;;;;;;24.77;3.05;;;;;;;;;;4936107;29;20106;-51
2023/10/08 02:41:06;;;;;;;25.33;3.20;;;;;;;;;;4951070;29;20055;-47
2023/10/08 02:43:36;;;;;;;33.13;3.78;;;;;;;;;;4926295;29;20071;-50
2023/10/08 02:46:14;;;;;;;27.17;3.15;;;;;;;;;;4934803;29;20102;-53
2023/10/08 02:48:41;;;;;;;19.50;2.80;;;;;;;;;;4947159;29;20044;-57
2023/10/08 02:51:14;;;;;;;30.52;4.22;;;;;;;;;;4949684;29;20047;-50
2023/10/08 02:53:43;;;;;;;37.50;3.80;;;;;;;;;;4951283;28;20047;-48
2023/10/08 02:56:14;;;;;;;35.20;3.40;;;;;;;;;;4934822;29;20142;-48
2023/10/08 02:58:43;;;;;;;22.83;2.63;;;;;;;;;;4934499;29;20043;-54
2023/10/08 03:01:12;;;;;;;31.30;3.03;;;;;;;;;;4934852;29;20134;-54
2023/10/08 03:03:40;;;;;;;23.90;2.83;;;;;;;;;;4954025;29;20464;-47
2023/10/08 03:06:11;;;;;;;27.63;2.63;;;;;;;;;;4953688;29;20035;-49
2023/10/08 03:08:41;;;;;;;20.75;2.63;;;;;;;;;;4954994;29;20059;-53
2023/10/08 03:11:16;;;;;;;25.15;2.80;;;;;;;;;;4956051;29;20055;-51
2023/10/08 03:13:46;;;;;;;41.50;3.47;;;;;;;;;;4953734;29;20103;-52
2023/10/08 03:16:14;;;;;;;19.67;2.20;;;;;;;;;;4935220;29;20142;-54
2023/10/08 03:18:45;;;;;;;17.55;2.17;;;;;;;;;;4955294;29;20079;-54
2023/10/08 03:21:33;;;;;;;35.45;2.92;;;;;;;;;;4938253;29;20536;-47
2023/10/08 03:24:06;;;;;;;54.47;4.28;;;;;;;;;;4945435;29;20062;-54
2023/10/08 03:26:33;;;;;;;25.40;2.53;;;;;;;;;;4954694;29;20046;-56
2023/10/08 03:29:05;;;;;;;32.55;3.38;;;;;;;;;;4937848;29;20141;-54
2023/10/08 03:31:49;;;;;;;19.17;2.47;;;;;;;;;;4954929;29;20485;-52
2023/10/08 03:34:19;;;;;;;21.20;2.65;;;;;;;;;;4937598;29;20516;-51
2023/10/08 03:36:47;;;;;;;21.73;2.35;;;;;;;;;;4954639;28;20066;-53
2023/10/08 03:39:14;;;;;;;37.35;3.63;;;;;;;;;;4953484;28;20449;-54
2023/10/08 03:41:41;;;;;;;17.77;2.00;;;;;;;;;;4955344;29;20049;-52
2023/10/08 03:44:16;;;;;;;15.00;1.90;;;;;;;;;;4955690;28;20122;-48
2023/10/08 03:46:43;;;;;;;16.02;2.13;;;;;;;;;;4954771;29;20428;-55
2023/10/08 03:51:51;;;;;;;34.72;3.20;;;;;;;;;;4951191;29;20051;-50
2023/10/08 03:54:19;;;;;;;20.58;2.55;;;;;;;;;;4954781;29;20113;-50
2023/10/08 03:56:46;;;;;;;46.97;3.45;;;;;;;;;;4951916;28;20070;-48
2023/10/08 03:59:13;;;;;;;24.98;2.22;;;;;;;;;;4954637;28;20051;-51
2023/10/08 04:01:41;;;;;;;23.58;2.15;;;;;;;;;;4954083;29;20047;-50
2023/10/08 04:04:17;;;;;;;27.58;2.53;;;;;;;;;;4954179;29;20051;-53
2023/10/08 04:06:51;;;;;;;17.30;1.80;;;;;;;;;;4954417;29;20047;-54
2023/10/08 04:09:23;;;;;;;19.63;2.00;;;;;;;;;;4953134;29;20031;-55
2023/10/08 04:11:51;;;;;;;59.47;4.40;;;;;;;;;;4954860;28;20402;-52
2023/10/08 04:14:22;;;;;;;18.83;2.05;;;;;;;;;;4937860;29;20055;-53
2023/10/08 04:16:51;;;;;;;34.85;3.13;;;;;;;;;;4950405;29;20075;-52
2023/10/08 04:19:26;;;;;;;20.67;2.13;;;;;;;;;;4954002;28;20039;-51
2023/10/08 04:21:54;;;;;;;25.73;2.22;;;;;;;;;;4953738;29;20621;-51
2023/10/08 04:24:28;;;;;;;25.23;1.98;;;;;;;;;;4953817;29;20397;-52
2023/10/08 04:26:58;;;;;;;54.97;4.13;;;;;;;;;;4937068;29;20055;-53
2023/10/08 04:29:26;;;;;;;27.70;2.28;;;;;;;;;;4955278;29;20404;-52
2023/10/08 04:32:07;;;;;;;28.70;2.28;;;;;;;;;;4953611;29;20039;-49
2023/10/08 04:34:34;;;;;;;15.57;1.63;;;;;;;;;;4950521;29;20058;-51
2023/10/08 04:37:03;;;;;;;19.25;1.95;;;;;;;;;;4953681;28;20389;-46
2023/10/08 04:39:33;;;;;;;17.73;1.73;;;;;;;;;;4952501;29;20054;-50
2023/10/08 04:42:10;;;;;;;67.90;4.68;;;;;;;;;;4927934;29;20055;-46
2023/10/08 04:44:40;;;;;;;24.77;2.03;;;;;;;;;;4954036;29;20043;-51
2023/10/08 04:47:31;;;;;;;18.08;1.88;;;;;;;;;;4952713;29;20491;-49
2023/10/08 04:49:56;;;;;;;23.85;2.10;;;;;;;;;;4951717;29;20424;-54
2023/10/08 04:52:25;;;;;;;20.02;2.00;;;;;;;;;;4936443;29;20549;-51
2023/10/08 04:54:51;;;;;;;40.78;3.00;;;;;;;;;;4935847;29;20062;-46
2023/10/08 04:57:22;;;;;;;32.92;2.63;;;;;;;;;;4953214;28;20039;-49
2023/10/08 04:59:53;;;;;;;56.28;3.63;;;;;;;;;;4921312;29;20493;-53
2023/10/08 05:02:26;;;;;;;15.02;1.63;;;;;;;;;;4953736;29;20057;-53
2023/10/08 05:05:21;;;;;;;21.55;2.22;;;;;;;;;;4951750;29;20433;-52
2023/10/08 05:13:01;;;;;;;26.27;2.58;;;;;;;;;;4950157;29;20792;-49
2023/10/08 05:15:37;;;;;;;28.23;2.42;;;;;;;;;;4952250;29;20047;-52
2023/10/08 05:21:25;;;;;;;23.13;1.80;;;;;;;;;;4848790;29;20093;-51
2023/10/08 05:24:13;;;;;;;60.72;3.92;;;;;;;;;;4855356;29;20125;-53
2023/10/08 05:26:49;;;;;;;16.05;2.03;;;;;;;;;;4841469;29;20057;-54
2023/10/08 05:35:30;;;;;;;26.35;2.33;;;;;;;;;;4856584;29;20099;-51
2023/10/08 05:37:42;;;;;;;24.83;2.22;;;;;;;;;;4855021;29;20057;-51
2023/10/08 05:40:54;;;;;;;15.23;1.77;;;;;;;;;;4856180;29;20056;-54
2023/10/08 05:43:22;;;;;;;13.00;1.70;;;;;;;;;;4855793;29;20470;-49
2023/10/08 05:46:19;;;;;;;13.45;1.42;;;;;;;;;;4855976;29;20412;-55
2023/10/08 05:48:45;;;;;;;16.08;1.88;;;;;;;;;;4855849;29;20057;-50
2023/10/08 05:51:33;;;;;;;28.17;2.38;;;;;;;;;;4856109;29;20054;-51
2023/10/08 05:54:10;;;;;;;69.18;4.40;;;;;;;;;;4856753;29;20106;-50
2023/10/08 05:57:04;;;;;;;22.33;1.83;;;;;;;;;;4953555;29;20133;-56
2023/10/08 05:59:31;;;;;;;27.65;2.03;;;;;;;;;;4953274;28;20456;-54
2023/10/08 06:02:06;;;;;;;20.60;1.90;;;;;;;;;;4931540;29;20043;-53
2023/10/08 06:07:33;;;;;;;22.80;1.90;;;;;;;;;;4948831;29;20382;-53
2023/10/08 06:10:13;;;;;;;38.28;7.68;;;;;;;;;;4952730;28;20039;-51
2023/10/08 06:12:49;;;;;;;16.98;1.85;;;;;;;;;;4950944;29;20122;-51
2023/10/08 06:15:27;;;;;;;27.35;3.58;;;;;;;;;;4936862;28;20074;-53
2023/10/08 06:18:04;;;;;;;70.28;4.55;;;;;;;;;;4952458;29;20134;-53
2023/10/08 06:20:34;;;;;;;17.15;2.17;;;;;;;;;;4952457;29;20130;-55
2023/10/08 06:23:06;;;;;;;29.85;3.25;;;;;;;;;;4952280;29;20051;-53
2023/10/08 06:25:44;;;;;;;17.80;2.10;;;;;;;;;;4949675;29;20519;-50
2023/10/08 06:28:37;;;;;;;50.38;10.95;;;;;;;;;;4952661;29;20047;-54
2023/10/08 06:31:06;;;;;;;29.60;2.60;;;;;;;;;;4950824;29;20106;-49
2023/10/08 06:33:37;;;;;;;41.00;2.92;;;;;;;;;;4952291;29;20102;-54
2023/10/08 06:38:34;;;;;;;32.03;2.60;;;;;;;;;;4956938;29;20043;-51
2023/10/08 06:41:33;;;;;;;25.27;2.08;;;;;;;;;;4938567;29;20448;-51
2023/10/08 06:44:14;;;;;;;17.95;1.77;;;;;;;;;;4956402;29;20130;-49
2023/10/08 06:46:41;;;;;;;21.33;2.72;;;;;;;;;;4938398;29;20051;-56
2023/10/08 06:49:12;;;;;;;26.98;3.97;;;;;;;;;;4955823;28;20405;-57
2023/10/08 06:51:43;;;;;;;23.40;5.18;;;;;;;;;;4952869;29;20054;-51
2023/10/08 06:54:13;;;;;;;25.52;2.47;;;;;;;;;;4954280;28;20406;-52
2023/10/08 06:56:46;;;;;;;10.68;1.13;;;;;;;;;;4955399;29;20048;-47
2023/10/08 06:59:13;;;;;;;23.20;2.90;;;;;;;;;;4938976;29;20055;-52
2023/10/08 07:01:45;;;;;;;17.45;1.75;;;;;;;;;;4937809;29;20070;-51
2023/10/08 07:04:13;;;;;;;20.20;1.73;;;;;;;;;;4951807;29;20464;-51
2023/10/08 07:06:40;;;;;;;19.30;1.92;;;;;;;;;;4922440;29;20047;-53
2023/10/08 07:09:22;;;;;;;29.95;3.25;;;;;;;;;;4938184;29;20138;-49
2023/10/08 07:11:49;;;;;;;57.22;3.97;;;;;;;;;;4953391;29;20058;-50
2023/10/08 07:14:17;;;;;;;17.85;1.75;;;;;;;;;;4939336;29;20520;-51
2023/10/08 07:16:47;;;;;;;28.08;1.90;;;;;;;;;;4955215;29;20047;-51
2023/10/08 07:19:18;;;;;;;19.65;2.60;;;;;;;;;;4938023;29;20046;-51
2023/10/08 07:21:46;;;;;;;23.60;2.35;;;;;;;;;;4954983;29;20039;-51
2023/10/08 07:24:17;;;;;;;36.25;2.92;;;;;;;;;;4955486;29;20051;-50
2023/10/08 07:26:47;;;;;;;11.82;1.33;;;;;;;;;;4956707;29;20043;-61
2023/10/08 07:29:19;;;;;;;37.58;3.30;;;;;;;;;;4953642;28;20047;-48
2023/10/08 07:31:49;;;;;;;19.30;1.77;;;;;;;;;;4952209;29;20051;-49
2023/10/08 07:34:17;;;;;;;26.67;3.53;;;;;;;;;;4937661;29;20085;-52
2023/10/08 07:36:49;;;;;;;30.00;2.53;;;;;;;;;;4937966;29;20035;-52
2023/10/08 07:41:56;;;;;;;64.55;9.73;;;;;;;;;;4954904;29;20066;-55
2023/10/08 07:44:23;;;;;;;22.40;2.45;;;;;;;;;;4954449;29;20420;-57
2023/10/08 07:46:51;;;;;;;28.83;3.00;;;;;;;;;;4954441;28;20130;-56
2023/10/08 07:49:17;;;;;;;44.42;3.33;;;;;;;;;;4937268;28;20110;-54
2023/10/08 07:51:53;;;;;;;15.88;2.55;;;;;;;;;;4937522;29;20138;-53
2023/10/08 07:54:22;;;;;;;23.88;2.00;;;;;;;;;;4953202;29;20054;-57
2023/10/08 07:56:51;;;;;;;35.75;2.38;;;;;;;;;;4954804;29;20631;-53
2023/10/08 07:59:18;;;;;;;10.48;1.27;;;;;;;;;;4937421;29;20051;-51
2023/10/08 08:01:45;;;;;;;22.38;3.72;;;;;;;;;;4953890;29;20126;-52
2023/10/08 08:04:21;;;;;;;34.70;3.25;;;;;;;;;;4954138;29;20086;-53
2023/10/08 08:06:52;;;;;;;26.48;2.88;;;;;;;;;;4934653;29;20145;-59
2023/10/08 08:09:23;;;;;;;27.55;2.53;;;;;;;;;;4937079;29;20046;-53
2023/10/08 08:11:50;;;;;;;44.75;3.35;;;;;;;;;;4934398;28;20047;-57
2023/10/08 08:14:16;;;;;;;23.85;1.77;;;;;;;;;;4954970;29;20044;-52
2023/10/08 08:16:47;;;;;;;31.98;2.88;;;;;;;;;;4953836;29;20126;-52
2023/10/08 08:19:24;;;;;;;23.58;2.17;;;;;;;;;;4937522;29;20054;-54
2023/10/08 08:21:52;;;;;;;24.45;1.88;;;;;;;;;;4954095;29;20047;-56
2023/10/08 08:24:35;;;;;;;26.85;2.25;;;;;;;;;;4937313;29;20047;-54
2023/10/08 08:27:11;;;;;;;67.03;4.20;;;;;;;;;;4937095;29;20079;-49
2023/10/08 08:29:48;;;;;;;25.42;2.03;;;;;;;;;;4954473;28;20123;-55
2023/10/08 08:32:21;;;;;;;24.83;2.53;;;;;;;;;;4939060;29;20134;-53
2023/10/08 08:34:50;;;;;;;26.13;2.50;;;;;;;;;;4954185;29;20039;-53
2023/10/08 08:37:17;;;;;;;14.00;1.25;;;;;;;;;;4953930;29;20764;-54
2023/10/08 08:39:45;;;;;;;21.20;1.70;;;;;;;;;;4952573;28;20043;-54
2023/10/08 08:42:14;;;;;;;21.75;1.52;;;;;;;;;;4953677;29;20058;-53
2023/10/08 08:44:46;;;;;;;18.40;1.98;;;;;;;;;;4954959;29;20409;-52
2023/10/08 08:47:17;;;;;;;25.83;2.42;;;;;;;;;;4949787;29;20055;-50
2023/10/08 08:49:47;;;;;;;36.15;2.58;;;;;;;;;;4936285;29;20485;-54
2023/10/08 08:52:14;;;;;;;25.25;2.35;;;;;;;;;;4936436;29;20039;-55
2023/10/08 08:54:44;;;;;;;20.88;1.88;;;;;;;;;;4952005;29;20049;-54
2023/10/08 08:57:14;;;;;;;25.75;1.77;;;;;;;;;;4936229;28;20052;-55
2023/10/08 08:59:52;;;;;;;12.30;1.30;;;;;;;;;;4936527;29;20482;-56
2023/10/08 09:02:19;;;;;;;12.75;1.45;;;;;;;;;;4952856;29;20564;-56
2023/10/08 09:04:48;;;;;;;22.50;2.05;;;;;;;;;;4953045;29;20047;-53
2023/10/08 09:07:14;;;;;;;26.90;2.00;;;;;;;;;;4935939;29;20051;-49
2023/10/08 09:09:41;;;;;;;22.20;1.92;;;;;;;;;;4936088;29;20043;-53
2023/10/08 09:12:10;;;;;;;41.67;2.72;;;;;;;;;;4953228;29;20047;-51
2023/10/08 09:14:38;;;;;;;17.50;1.50;;;;;;;;;;4954339;29;20051;-50
2023/10/08 09:17:05;;;;;;;23.15;2.15;;;;;;;;;;4952158;29;20477;-54
2023/10/08 09:19:38;;;;;;;26.77;2.13;;;;;;;;;;4953033;29;20039;-54
2023/10/08 09:22:09;;;;;;;25.48;2.05;;;;;;;;;;4935884;29;20507;-53
2023/10/08 09:24:37;;;;;;;29.80;2.17;;;;;;;;;;4932586;29;20039;-49
2023/10/08 09:27:04;;;;;;;45.05;3.10;;;;;;;;;;4952958;28;20047;-52
2023/10/08 09:29:31;;;;;;;11.40;1.15;;;;;;;;;;4954060;29;20446;-55
2023/10/08 09:31:59;;;;;;;21.75;1.73;;;;;;;;;;4935621;29;20050;-56
2023/10/08 09:34:30;;;;;;;22.55;1.80;;;;;;;;;;4952783;29;20049;-54
2023/10/08 09:36:59;;;;;;;25.13;2.00;;;;;;;;;;4951631;29;20127;-58
2023/10/08 09:39:33;;;;;;;38.17;2.55;;;;;;;;;;4935386;29;20413;-53
2023/10/08 09:42:11;;;;;;;73.00;5.97;;;;;;;;;;4935467;29;20048;-54
2023/10/08 09:44:39;;;;;;;23.33;2.03;;;;;;;;;;4936829;29;20047;-51
2023/10/08 09:47:07;;;;;;;29.80;2.58;;;;;;;;;;4935062;28;20139;-52
2023/10/08 09:49:54;;;;;;;17.25;1.83;;;;;;;;;;4952845;29;20035;-55
2023/10/08 09:52:23;;;;;;;34.90;4.07;;;;;;;;;;4942404;29;20102;-56
2023/10/08 09:54:59;;;;;;;17.45;1.48;;;;;;;;;;4953536;29;20047;-55
2023/10/08 09:57:26;;;;;;;31.77;3.38;;;;;;;;;;4953599;28;20513;-52
2023/10/08 09:59:53;;;;;;;56.15;3.88;;;;;;;;;;4953758;29;20047;-56
2023/10/08 10:02:26;;;;;;;23.05;1.73;;;;;;;;;;4936357;29;20484;-57
2023/10/08 10:04:54;;;;;;;22.25;1.92;;;;;;;;;;4936405;29;20071;-55
2023/10/08 10:07:22;;;;;;;6.90;1.13;;;;;;;;;;4936639;29;20047;-57
2023/10/08 10:09:53;;;;;;;15.07;1.23;;;;;;;;;;4936905;28;20481;-56
2023/10/08 10:12:25;;;;;;;53.15;3.22;;;;;;;;;;4924884;29;20043;-52
2023/10/08 10:14:56;;;;;;;36.53;3.00;;;;;;;;;;4942652;29;20047;-55
2023/10/08 10:17:25;;;;;;;25.45;2.40;;;;;;;;;;4959824;29;20039;-58
2023/10/08 10:20:13;;;;;;;15.52;1.42;;;;;;;;;;4959117;29;20105;-56
2023/10/08 10:22:43;;;;;;;20.98;2.10;;;;;;;;;;4959177;29;20047;-53
2023/10/08 10:25:17;;;;;;;27.48;2.92;;;;;;;;;;4956541;29;20485;-57
2023/10/08 10:27:53;;;;;;;21.08;1.75;;;;;;;;;;4943058;29;20122;-51
2023/10/08 10:30:20;;;;;;;34.72;2.85;;;;;;;;;;4959285;28;20039;-57
2023/10/08 10:32:53;;;;;;;26.42;2.50;;;;;;;;;;4959562;28;20483;-56
2023/10/08 10:35:20;;;;;;;23.00;2.25;;;;;;;;;;4958757;28;20130;-58
2023/10/08 10:37:51;;;;;;;27.13;1.90;;;;;;;;;;4959321;28;20126;-54
2023/10/08 10:41:23;;;;;;;15.68;2.30;;;;;;;;;;4959360;29;20501;-57
2023/10/08 10:43:20;;;;;;;18.52;1.70;;;;;;;;;;4946938;28;20083;-57
2023/10/08 10:45:47;;;;;;;28.00;2.15;;;;;;;;;;4941705;29;20050;-58
2023/10/08 10:53:44;;;;;;;23.20;1.42;;;;;;;;;;4959707;29;20051;-56
2023/10/08 10:56:18;;;;;;;26.30;1.83;;;;;;;;;;4941731;29;20051;-58
2023/10/08 10:58:53;;;;;;;21.20;2.85;;;;;;;;;;4941360;29;20047;-56
2023/10/08 11:01:29;;;;;;;8.70;1.20;;;;;;;;;;4958557;28;20497;-56
2023/10/08 11:03:57;;;;;;;18.38;1.70;;;;;;;;;;4941604;28;20138;-52
2023/10/08 11:06:25;;;;;;;26.17;1.88;;;;;;;;;;4941666;29;20489;-53
2023/10/08 11:08:53;;;;;;;26.83;2.28;;;;;;;;;;4958718;29;20097;-57
2023/10/08 11:11:27;;;;;;;17.83;1.67;;;;;;;;;;4959594;29;20047;-55
2023/10/08 11:14:00;;;;;;;23.50;4.15;;;;;;;;;;4958763;28;20061;-47
2023/10/08 11:16:31;;;;;;;;;;;;;;;;;;4954149;28;20047;-56
2023/10/08 11:19:01;;;;;;;29.90;2.10;;;;;;;;;;4958897;29;19922;-54
2023/10/08 11:21:33;;;;;;;24.98;1.80;;;;;;;;;;4956234;28;20043;-53
2023/10/08 11:24:08;;;;;;;66.60;6.32;;;;;;;;;;4936376;29;20047;-56
2023/10/08 11:26:38;;;;;;;22.38;2.03;;;;;;;;;;4938296;29;20059;-53
2023/10/08 11:29:13;;;;;;;28.08;3.92;;;;;;;;;;4937060;29;20493;-52
2023/10/08 11:31:41;;;;;;;20.20;2.17;;;;;;;;;;4955403;29;20055;-56
2023/10/08 11:34:12;;;;;;;30.27;2.17;;;;;;;;;;4955216;29;20046;-52
2023/10/08 11:36:48;;;;;;;13.23;1.20;;;;;;;;;;4955650;29;20039;-51
2023/10/08 11:39:22;;;;;;;21.85;1.45;;;;;;;;;;4955284;29;20066;-51
2023/10/08 11:41:55;;;;;;;27.80;1.60;;;;;;;;;;4954103;29;20493;-51
2023/10/08 11:44:23;;;;;;;;;;;;;;;;;;4956106;28;20309;-49
2023/10/08 11:46:51;;;;;;;26.50;1.77;;;;;;;;;;4938356;29;19945;-55
2023/10/08 11:49:19;;;;;;;18.52;2.22;;;;;;;;;;4955363;29;20036;-50
2023/10/08 11:51:46;;;;;;;29.00;2.03;;;;;;;;;;4954811;29;20047;-55
2023/10/08 11:54:14;;;;;;;36.63;2.42;;;;;;;;;;4954546;28;20053;-52
2023/10/08 11:56:41;;;;;;;23.95;2.00;;;;;;;;;;4955958;29;20055;-53
2023/10/08 11:59:08;;;;;;;17.65;1.60;;;;;;;;;;4937264;29;20047;-51
2023/10/08 12:01:37;;;;;;;21.45;1.65;;;;;;;;;;4936622;29;20130;-50
2023/10/08 12:04:04;;;;;;;42.75;3.20;;;;;;;;;;4947899;28;20056;-54
2023/10/08 12:06:32;;;;;;;48.42;3.72;;;;;;;;;;4954645;28;20047;-50
2023/10/08 12:08:59;;;;;;;98.97;6.15;;;;;;;;;;4937217;29;20051;-54
2023/10/08 12:11:35;;;;;;;41.67;2.85;;;;;;;;;;4955387;29;20071;-54
2023/10/08 12:14:02;;;;;;;39.25;2.75;;;;;;;;;;4936406;29;20412;-50
2023/10/08 12:16:29;;;;;;;44.72;2.95;;;;;;;;;;4937110;29;20043;-50
2023/10/08 12:18:58;;;;;;;29.77;2.25;;;;;;;;;;4950290;29;20409;-53
2023/10/08 12:21:25;;;;;;;41.45;2.55;;;;;;;;;;4937237;29;20118;-53
2023/10/08 12:23:54;;;;;;;28.45;2.13;;;;;;;;;;4933393;29;20047;-55
2023/10/08 12:26:21;;;;;;;35.22;2.40;;;;;;;;;;4934580;29;20155;-56
2023/10/08 12:28:49;;;;;;;76.88;4.68;;;;;;;;;;4935939;28;20532;-58
2023/10/08 12:31:21;;;;;;;62.85;3.72;;;;;;;;;;4952250;29;20094;-55
2023/10/08 12:33:51;;;;;;;42.80;2.77;;;;;;;;;;4935189;29;20035;-52
2023/10/08 12:36:18;;;;;;;45.95;2.97;;;;;;;;;;4953271;29;20300;-53
2023/10/08 12:38:47;;;;;;;35.85;2.53;;;;;;;;;;4952747;28;20137;-57
2023/10/08 12:41:18;;;;;;;72.15;4.28;;;;;;;;;;4935916;29;20066;-58
2023/10/08 12:43:46;;;;;;;57.70;3.72;;;;;;;;;;4935488;29;20090;-55
2023/10/08 12:46:23;;;;;;;52.42;3.33;;;;;;;;;;4952949;28;20075;-55
2023/10/08 12:48:54;;;;;;;54.25;3.33;;;;;;;;;;4949872;28;20050;-56
2023/10/08 12:51:25;;;;;;;92.25;5.30;;;;;;;;;;4944938;28;20062;-52
2023/10/08 12:53:58;;;;;;;60.53;3.65;;;;;;;;;;4953593;28;20072;-59
2023/10/08 12:56:32;;;;;;;65.03;3.85;;;;;;;;;;4961094;28;20057;-56
2023/10/08 12:58:59;;;;;;;66.25;4.03;;;;;;;;;;4943134;28;20054;-50
2023/10/08 13:01:28;;;;;;;43.42;3.30;;;;;;;;;;4942946;28;20110;-52
2023/10/08 13:04:00;;;;;;;66.43;5.38;;;;;;;;;;4954802;28;20055;-55
2023/10/08 13:06:30;;;;;;;66.18;4.35;;;;;;;;;;4935224;29;20445;-51
2023/10/08 13:08:58;;;;;;;53.30;3.50;;;;;;;;;;4952645;28;20055;-57
2023/10/08 13:11:29;;;;;;;45.80;3.35;;;;;;;;;;4935805;29;20062;-56
2023/10/08 13:13:57;;;;;;;54.00;3.30;;;;;;;;;;4952432;28;20039;-54
2023/10/08 13:16:25;;;;;;;64.85;7.30;;;;;;;;;;4952142;29;20043;-56
2023/10/08 13:18:56;;;;;;;72.90;4.85;;;;;;;;;;4935338;29;20070;-55
2023/10/08 13:21:27;;;;;;;64.95;4.32;;;;;;;;;;4935004;29;20118;-65
2023/10/08 13:23:59;;;;;;;144.95;8.80;;;;;;;;;;4934244;28;20054;-58
2023/10/08 13:26:30;;;;;;;66.72;4.55;;;;;;;;;;4948514;29;20055;-58
2023/10/08 13:28:58;;;;;;;48.65;3.03;;;;;;;;;;4949624;28;20050;-55
2023/10/08 13:31:26;;;;;;;38.15;2.58;;;;;;;;;;4952546;28;20133;-56
2023/10/08 13:33:56;;;;;;;31.80;2.40;;;;;;;;;;4919667;29;20036;-51
2023/10/08 13:36:23;;;;;;;65.45;3.88;;;;;;;;;;4949005;28;20047;-60
2023/10/08 13:38:51;;;;;;;29.83;2.70;;;;;;;;;;4934895;29;20054;-57
2023/10/08 13:41:19;;;;;;;45.80;3.47;;;;;;;;;;4951324;28;20497;-50
2023/10/08 13:43:46;;;;;;;45.58;4.38;;;;;;;;;;4931632;29;20417;-56
2023/10/08 13:46:14;;;;;;;70.53;7.70;;;;;;;;;;4934475;29;20066;-47
2023/10/08 13:48:46;;;;;;;72.15;10.15;;;;;;;;;;4951036;28;20126;-48
2023/10/08 13:51:14;;;;;;;47.60;3.53;;;;;;;;;;4952037;28;20066;-54
2023/10/08 13:53:44;;;;;;;36.00;2.60;;;;;;;;;;4952732;29;20055;-52
2023/10/08 13:56:14;;;;;;;38.65;2.63;;;;;;;;;;4950467;29;20122;-51
2023/10/08 13:58:46;;;;;;;39.17;2.85;;;;;;;;;;4934212;29;20112;-50
2023/10/08 14:01:19;;;;;;;74.15;4.43;;;;;;;;;;4933877;29;20117;-54
2023/10/08 14:03:47;;;;;;;49.15;3.40;;;;;;;;;;4951679;28;20047;-57
2023/10/08 14:06:16;;;;;;;55.90;3.65;;;;;;;;;;4951708;28;20047;-55
2023/10/08 14:08:54;;;;;;;41.47;3.00;;;;;;;;;;4952397;29;20165;-52
2023/10/08 14:11:29;;;;;;;48.80;3.13;;;;;;;;;;4950550;29;20055;-51
2023/10/08 14:13:58;;;;;;;50.67;3.60;;;;;;;;;;4934183;29;20427;-54
2023/10/08 14:16:28;;;;;;;55.40;3.63;;;;;;;;;;4950111;28;20043;-50
2023/10/08 14:18:55;;;;;;;33.65;2.28;;;;;;;;;;4934627;29;20082;-48
2023/10/08 14:21:30;;;;;;;62.72;5.00;;;;;;;;;;4950179;29;20051;-53
2023/10/08 14:24:02;;;;;;;61.97;4.30;;;;;;;;;;4948711;28;20051;-54
2023/10/08 14:26:35;;;;;;;58.78;4.03;;;;;;;;;;4950695;29;20061;-47
2023/10/08 14:29:15;;;;;;;64.35;4.05;;;;;;;;;;4947641;28;20068;-55
2023/10/08 14:31:44;;;;;;;46.60;3.10;;;;;;;;;;4933602;29;20047;-58
2023/10/08 14:45:22;;;;;;;52.75;3.67;;;;;;;;;;4835636;29;20080;-53
2023/10/08 14:47:49;;;;;;;41.75;3.05;;;;;;;;;;4837308;29;20592;-52
2023/10/08 14:50:16;;;;;;;46.10;3.05;;;;;;;;;;4833786;29;20073;-55
2023/10/08 14:52:45;;;;;;;47.13;3.25;;;;;;;;;;4809986;29;20448;-60
2023/10/08 14:55:16;;;;;;;58.17;3.78;;;;;;;;;;4815084;29;20054;-57
2023/10/08 14:57:45;;;;;;;46.00;3.17;;;;;;;;;;4837359;29;20057;-54
2023/10/08 15:00:12;;;;;;;102.47;6.35;;;;;;;;;;4839301;29;20058;-53
2023/10/08 15:02:39;;;;;;;73.15;4.43;;;;;;;;;;4839116;29;20601;-55
2023/10/08 15:05:06;;;;;;;65.70;3.78;;;;;;;;;;4823967;29;20056;-50
2023/10/08 15:07:34;;;;;;;57.80;3.75;;;;;;;;;;4838394;29;20058;-53
2023/10/08 15:10:01;;;;;;;67.47;4.65;;;;;;;;;;4838803;29;20058;-52
2023/10/08 15:12:28;;;;;;;58.83;3.92;;;;;;;;;;4838899;29;20062;-51
2023/10/08 15:14:54;;;;;;;38.25;2.78;;;;;;;;;;4840194;29;20515;-59
2023/10/08 15:17:21;;;;;;;55.30;3.67;;;;;;;;;;4817888;29;20454;-53
2023/10/08 15:19:49;;;;;;;27.08;2.22;;;;;;;;;;4913264;29;20054;-54
2023/10/08 15:22:16;;;;;;;43.58;3.22;;;;;;;;;;4954388;28;20036;-57
2023/10/08 15:24:44;;;;;;;42.25;2.78;;;;;;;;;;4953677;28;20047;-55
2023/10/08 15:27:11;;;;;;;75.60;4.55;;;;;;;;;;4954522;28;20051;-54
2023/10/08 15:29:38;;;;;;;35.30;3.03;;;;;;;;;;4954985;29;20047;-54
2023/10/08 15:32:05;;;;;;;44.47;3.60;;;;;;;;;;4954546;28;20051;-55
2023/10/08 15:34:33;;;;;;;100.78;6.35;;;;;;;;;;4951539;28;20385;-56
2023/10/08 15:37:06;;;;;;;52.35;4.07;;;;;;;;;;4937009;29;20417;-53
2023/10/08 15:39:33;;;;;;;48.65;3.95;;;;;;;;;;4936914;29;20047;-51
2023/10/08 15:42:00;;;;;;;74.15;5.10;;;;;;;;;;4937785;28;20521;-48
2023/10/08 15:44:27;;;;;;;57.25;3.85;;;;;;;;;;4954441;29;20047;-53